Santo Angelo, Brazil
Current Conditions -  °F | °C
As of 2:00 PM on Wednesday 28 Jan 2015 (Local Time) from SBSM Reporting Station
Rain Showers Rain Showers  
Wind Chill: 86°   Ceiling: 3500
Heat Index: 92°   Visibility: 6mi
Dew Point: 72°   Wind: 14mph
Humidity: 62%   Direction: 270°W
Pressure: NA   Gusts: NA
Location:  28.3°S, 54.26°W
Report Text: SBSM 281600Z 27012KT 9999 VCSH BKN035 FEW040TCU BKN100 30/22 Q1008
Loading
Personal Weather Stations






























Interactive Weather Map New forecast layout! Learn more

10-Day Weather Forecast

Advertisements
Track Severe Weather on mobile